Time;durP1;ratioP1;P1;durP2;ratioP2;P2;SDS_P1;SDS_P2;PMS_P1;PMS_P2;Temp;Humidity;BMP_temperature;BMP_pressure;BME280_temperature;BME280_humidity;BME280_pressure;Samples;Min_cycle;Max_cycle;Signal;HPM_P1;HPM_P2
2023/12/17 00:01:19;;;;;;;4.30;2.45;;;9.70;99.90;;;;;;5040051;28;20040;-88
2023/12/17 00:03:44;;;;;;;0.52;0.52;;;9.80;99.90;;;;;;5041062;28;20388;-88
2023/12/17 00:06:10;;;;;;;2.20;1.05;;;9.80;99.90;;;;;;5058008;28;20044;-88
2023/12/17 00:08:36;;;;;;;0.28;0.28;;;9.80;1.00;;;;;;5056837;28;20053;-88
2023/12/17 00:11:02;;;;;;;1.75;0.82;;;9.90;1.00;;;;;;5056649;28;20486;-90
2023/12/17 00:13:27;;;;;;;1.20;0.98;;;9.80;99.90;;;;;;5022201;28;20455;-91
2023/12/17 00:15:53;;;;;;;0.00;0.00;;;9.80;99.90;;;;;;5038727;28;20094;-90
2023/12/17 00:18:19;;;;;;;0.55;0.10;;;9.80;25.60;;;;;;5056482;28;20552;-90
2023/12/17 00:20:44;;;;;;;0.60;0.30;;;9.80;67.50;;;;;;5056488;28;20580;-90
2023/12/17 00:23:10;;;;;;;4.00;1.17;;;9.80;99.90;;;;;;5038458;28;20049;-90
2023/12/17 00:25:35;;;;;;;0.22;0.22;;;9.90;99.90;;;;;;5056017;28;20491;-90
2023/12/17 00:28:01;;;;;;;0.52;0.28;;;10.60;99.90;;;;;;5055917;28;20033;-90
2023/12/17 00:30:27;;;;;;;0.25;0.20;;;9.80;99.90;;;;;;5055770;28;20120;-91
2023/12/17 00:32:52;;;;;;;0.35;0.32;;;9.80;99.90;;;;;;5037905;28;20055;-90
2023/12/17 00:35:18;;;;;;;0.00;0.00;;;9.80;99.90;;;;;;5037732;28;20048;-91
2023/12/17 00:37:43;;;;;;;1.65;1.20;;;10.60;99.90;;;;;;5037551;28;20041;-90
2023/12/17 00:40:09;;;;;;;1.08;0.85;;;10.60;99.90;;;;;;5055582;28;20040;-90
2023/12/17 00:42:35;;;;;;;0.13;0.13;;;9.80;99.90;;;;;;5055212;28;20104;-90
2023/12/17 00:45:01;;;;;;;3.00;0.55;;;9.80;99.90;;;;;;5055511;28;20099;-90
2023/12/17 00:47:27;;;;;;;33.00;1.27;;;10.60;99.90;;;;;;5037554;28;20438;-91
2023/12/17 00:49:53;;;;;;;5.18;2.80;;;9.80;99.90;;;;;;5037176;28;20049;-90
2023/12/17 00:52:20;;;;;;;0.98;0.80;;;9.80;99.90;;;;;;5020822;28;20091;-90
2023/12/17 00:54:46;;;;;;;0.30;0.30;;;9.90;99.90;;;;;;5038323;28;21016;-90
2023/12/17 00:57:12;;;;;;;0.10;0.10;;;9.80;99.90;;;;;;5021587;28;20098;-90
2023/12/17 00:59:37;;;;;;;1.90;1.25;;;11.00;99.90;;;;;;5055373;28;20040;-88
2023/12/17 01:02:03;;;;;;;0.03;0.03;;;11.20;90.40;;;;;;5055325;28;20132;-88
2023/12/17 01:04:29;;;;;;;0.55;0.50;;;9.90;99.90;;;;;;5055357;28;20454;-88
2023/12/17 01:06:54;;;;;;;4.38;1.20;;;10.10;1.00;;;;;;5055055;28;20037;-88
2023/12/17 01:09:20;;;;;;;0.75;0.60;;;10.20;99.90;;;;;;5054979;28;20136;-88
2023/12/17 01:11:45;;;;;;;0.47;0.47;;;10.00;1.00;;;;;;5055060;28;20072;-88
2023/12/17 01:14:11;;;;;;;8.13;0.52;;;9.90;99.90;;;;;;5037853;28;20047;-88
2023/12/17 01:16:37;;;;;;;2.30;1.00;;;10.00;1.00;;;;;;5055656;28;20041;-88
2023/12/17 01:19:02;;;;;;;4.47;1.92;;;9.90;49.70;;;;;;5055613;28;20041;-88
2023/12/17 01:21:28;;;;;;;0.98;0.63;;;11.20;91.70;;;;;;5020955;28;20114;-88
2023/12/17 01:23:54;;;;;;;0.57;0.45;;;9.90;3.00;;;;;;5037374;28;20039;-88
2023/12/17 01:26:22;;;;;;;0.30;0.30;;;9.80;1.00;;;;;;5056332;28;20478;-88
2023/12/17 01:28:49;;;;;;;0.77;0.40;;;9.90;1.00;;;;;;5057255;28;20470;-88
2023/12/17 01:31:14;;;;;;;0.03;0.03;;;9.90;76.50;;;;;;5055890;28;20040;-88
2023/12/17 01:33:40;;;;;;;0.00;0.00;;;9.90;57.80;;;;;;5020585;28;20148;-88
2023/12/17 01:36:06;;;;;;;0.17;0.17;;;9.90;1.00;;;;;;5020253;28;20191;-88
2023/12/17 01:38:32;;;;;;;0.20;0.20;;;9.90;1.00;;;;;;5054764;28;20102;-87
2023/12/17 01:40:57;;;;;;;0.30;0.25;;;9.90;99.90;;;;;;5055937;28;20041;-88
2023/12/17 01:43:23;;;;;;;0.20;0.20;;;9.90;4.30;;;;;;5037029;28;20098;-88
2023/12/17 01:45:50;;;;;;;0.20;0.20;;;9.90;1.00;;;;;;5020004;28;20065;-88
2023/12/17 01:48:15;;;;;;;0.55;0.38;;;9.80;1.00;;;;;;5036691;28;20087;-88
2023/12/17 01:50:42;;;;;;;0.22;0.22;;;9.90;1.00;;;;;;5037081;28;20486;-88
2023/12/17 01:53:08;;;;;;;0.38;0.38;;;9.90;9.20;;;;;;5053756;28;20094;-90
2023/12/17 01:55:33;;;;;;;5.68;2.17;;;9.90;1.00;;;;;;5055044;28;20037;-90
2023/12/17 01:58:00;;;;;;;1.17;0.98;;;9.80;1.00;;;;;;5055391;28;20060;-90
2023/12/17 02:00:26;;;;;;;2.03;1.55;;;9.90;1.00;;;;;;5054931;28;20041;-90
2023/12/17 02:02:52;;;;;;;1.80;0.52;;;9.80;1.00;;;;;;5054641;28;20511;-90
2023/12/17 02:05:17;;;;;;;0.52;0.32;;;10.60;1.00;;;;;;5037143;28;20482;-91
2023/12/17 02:07:43;;;;;;;1.88;0.28;;;11.10;1.00;;;;;;5036845;28;20098;-90
2023/12/17 02:10:09;;;;;;;0.13;0.13;;;9.90;1.00;;;;;;5037231;28;20167;-90
2023/12/17 02:12:34;;;;;;;2.90;1.10;;;9.90;99.90;;;;;;5055165;28;20498;-90
2023/12/17 02:15:00;;;;;;;1.60;0.85;;;9.80;1.00;;;;;;5036396;28;20399;-90
2023/12/17 02:17:31;;;;;;;0.88;0.20;;;9.80;49.10;;;;;;5054357;28;20494;-90
2023/12/17 02:19:57;;;;;;;0.05;0.05;;;9.80;1.00;;;;;;5036146;28;20398;-90
2023/12/17 02:22:24;;;;;;;0.40;0.40;;;10.10;4.00;;;;;;5036283;28;20028;-90
2023/12/17 02:24:51;;;;;;;0.80;0.65;;;9.90;1.00;;;;;;5036009;28;20052;-90
2023/12/17 02:27:22;;;;;;;0.30;0.30;;;9.90;1.00;;;;;;5053823;28;20045;-88
2023/12/17 02:29:48;;;;;;;0.28;0.28;;;9.90;99.90;;;;;;5036012;28;20044;-88
2023/12/17 02:32:14;;;;;;;0.80;0.52;;;9.90;1.00;;;;;;5036418;28;20486;-88
2023/12/17 02:34:40;;;;;;;0.43;0.38;;;9.90;1.00;;;;;;5035897;28;20044;-88
2023/12/17 02:37:06;;;;;;;1.42;0.50;;;9.90;1.00;;;;;;5053880;28;20487;-88
2023/12/17 02:39:32;;;;;;;1.67;0.93;;;11.10;1.00;;;;;;5036225;28;20075;-88
2023/12/17 02:41:58;;;;;;;0.40;0.30;;;9.90;1.00;;;;;;5054430;28;20056;-88
2023/12/17 02:44:24;;;;;;;0.20;0.20;;;10.00;99.90;;;;;;5036163;28;20051;-88
2023/12/17 02:46:50;;;;;;;0.50;0.50;;;9.90;99.90;;;;;;5054347;28;20530;-88
2023/12/17 02:49:16;;;;;;;0.35;0.35;;;9.90;99.90;;;;;;5036145;28;20037;-88
2023/12/17 02:51:41;;;;;;;0.90;0.80;;;10.00;99.90;;;;;;5035646;28;20048;-88
2023/12/17 02:54:07;;;;;;;0.20;0.20;;;9.90;99.90;;;;;;5053963;28;20086;-88
2023/12/17 02:56:38;;;;;;;6.20;0.75;;;9.90;99.90;;;;;;5053980;28;20533;-88
2023/12/17 02:59:08;;;;;;;0.60;0.57;;;9.90;99.90;;;;;;5035973;28;20049;-88
2023/12/17 03:01:34;;;;;;;0.77;0.77;;;9.90;99.90;;;;;;5035720;28;20056;-88
2023/12/17 03:03:59;;;;;;;0.08;0.08;;;9.90;99.90;;;;;;5035886;28;20486;-88
2023/12/17 03:06:25;;;;;;;0.32;0.28;;;9.90;99.90;;;;;;5039529;28;20394;-88
2023/12/17 03:08:50;;;;;;;2.95;1.65;;;10.80;99.90;;;;;;5039578;28;20052;-88
2023/12/17 03:11:16;;;;;;;1.23;0.65;;;9.90;99.90;;;;;;5039698;28;20051;-88
2023/12/17 03:13:42;;;;;;;0.03;0.03;;;9.90;99.90;;;;;;5038969;28;20040;-88
2023/12/17 03:16:11;;;;;;;0.30;0.22;;;9.80;99.90;;;;;;5057582;28;20425;-91
2023/12/17 03:18:36;;;;;;;1.35;0.90;;;9.90;99.90;;;;;;5039421;28;20045;-90
2023/12/17 03:21:07;;;;;;;0.90;0.52;;;9.90;99.90;;;;;;5057456;28;20048;-90
2023/12/17 03:23:35;;;;;;;0.50;0.28;;;9.90;99.90;;;;;;5057390;28;20121;-90
2023/12/17 03:26:03;;;;;;;0.38;0.22;;;9.90;99.90;;;;;;5057322;28;20040;-90
2023/12/17 03:28:28;;;;;;;0.20;0.20;;;10.00;99.90;;;;;;5039442;28;20037;-91
2023/12/17 03:30:54;;;;;;;0.20;0.10;;;9.90;99.90;;;;;;5057535;28;20045;-91
2023/12/17 03:33:20;;;;;;;0.10;0.10;;;10.00;23.40;;;;;;5039030;28;20086;-90
2023/12/17 03:35:46;;;;;;;0.32;0.32;;;10.00;1.00;;;;;;5057265;28;20124;-90
2023/12/17 03:38:13;;;;;;;0.95;0.95;;;10.00;99.90;;;;;;5022773;28;20056;-90
2023/12/17 03:40:38;;;;;;;1.23;0.85;;;10.00;1.00;;;;;;5057855;28;20067;-91
2023/12/17 03:43:04;;;;;;;0.80;0.75;;;10.00;1.00;;;;;;5039609;28;20041;-90
2023/12/17 03:45:31;;;;;;;0.00;0.00;;;10.00;1.00;;;;;;5057163;28;20049;-90
2023/12/17 03:47:57;;;;;;;1.50;0.70;;;10.60;1.00;;;;;;5023012;28;20049;-91
2023/12/17 03:50:23;;;;;;;0.47;0.47;;;10.10;99.90;;;;;;5057533;28;20441;-90
2023/12/17 03:52:49;;;;;;;0.47;0.47;;;10.10;99.90;;;;;;5056979;28;20045;-90
2023/12/17 03:55:14;;;;;;;15.32;1.48;;;10.00;99.90;;;;;;5022175;28;20120;-90
2023/12/17 03:57:41;;;;;;;0.00;0.00;;;10.10;99.90;;;;;;5038748;28;20429;-90
2023/12/17 04:00:07;;;;;;;0.93;0.40;;;10.50;99.90;;;;;;5022279;28;20056;-90
2023/12/17 04:02:33;;;;;;;4.80;1.45;;;10.00;99.90;;;;;;5057227;28;20037;-91
2023/12/17 04:04:59;;;;;;;0.47;0.40;;;10.00;99.90;;;;;;5023029;28;20045;-90
2023/12/17 04:07:29;;;;;;;2.22;1.20;;;10.00;99.90;;;;;;5057500;28;20059;-90
2023/12/17 04:09:59;;;;;;;0.25;0.25;;;10.00;99.90;;;;;;5039121;28;20045;-90
2023/12/17 04:12:24;;;;;;;0.25;0.20;;;10.10;99.90;;;;;;5056746;28;20052;-91
2023/12/17 04:14:50;;;;;;;1.98;1.83;;;10.10;99.90;;;;;;5039026;28;20053;-90
2023/12/17 04:17:16;;;;;;;0.28;0.20;;;11.40;99.90;;;;;;5055957;28;20040;-90
2023/12/17 04:19:41;;;;;;;0.20;0.20;;;10.00;99.90;;;;;;5038345;28;20071;-90
2023/12/17 04:22:07;;;;;;;0.40;0.32;;;9.90;99.90;;;;;;5022005;28;20044;-90
2023/12/17 04:24:33;;;;;;;0.57;0.28;;;10.00;99.90;;;;;;5058366;28;20068;-90
2023/12/17 04:26:58;;;;;;;0.10;0.10;;;10.00;99.90;;;;;;5059074;28;20049;-90
2023/12/17 04:29:24;;;;;;;0.00;0.00;;;11.30;99.90;;;;;;5058321;28;20124;-90
2023/12/17 04:31:50;;;;;;;0.17;0.17;;;10.00;99.90;;;;;;5057655;28;20072;-90
2023/12/17 04:34:16;;;;;;;3.25;0.43;;;10.50;99.90;;;;;;5058219;28;20048;-90
2023/12/17 04:36:42;;;;;;;0.20;0.17;;;9.90;12.80;;;;;;5058962;28;20390;-90
2023/12/17 04:39:09;;;;;;;0.10;0.10;;;9.90;99.90;;;;;;5040281;28;20045;-90
2023/12/17 04:41:38;;;;;;;0.85;0.68;;;10.00;74.40;;;;;;5056929;28;20087;-90
2023/12/17 04:44:04;;;;;;;1.70;1.15;;;11.40;1.00;;;;;;5039840;28;20052;-90
2023/12/17 04:46:30;;;;;;;4.40;1.55;;;10.00;99.90;;;;;;5057116;28;20398;-90
2023/12/17 04:48:56;;;;;;;3.45;1.98;;;10.10;99.90;;;;;;5038674;28;20094;-90
2023/12/17 04:51:22;;;;;;;0.10;0.10;;;10.90;99.90;;;;;;5062079;28;20037;-90
2023/12/17 04:53:48;;;;;;;0.35;0.35;;;10.40;99.90;;;;;;5058616;28;20041;-90
2023/12/17 04:56:14;;;;;;;4.68;1.10;;;10.00;99.90;;;;;;5056835;28;20041;-90
2023/12/17 04:58:40;;;;;;;1.83;1.05;;;10.00;99.90;;;;;;5038087;28;20045;-90
2023/12/17 05:01:06;;;;;;;0.22;0.22;;;11.30;99.90;;;;;;5038393;28;20550;-87
2023/12/17 05:03:31;;;;;;;1.65;0.88;;;10.00;99.90;;;;;;5048338;28;20565;-88
2023/12/17 05:05:57;;;;;;;1.20;0.55;;;10.60;99.90;;;;;;5061854;28;20041;-90
2023/12/17 05:08:23;;;;;;;0.57;0.57;;;10.00;99.90;;;;;;5062512;28;20134;-88
2023/12/17 05:10:48;;;;;;;3.55;0.70;;;9.90;99.90;;;;;;5042768;28;20049;-90
2023/12/17 05:13:14;;;;;;;4.85;0.47;;;9.90;99.90;;;;;;5057705;28;20041;-90
2023/12/17 05:15:40;;;;;;;0.32;0.32;;;9.90;99.90;;;;;;5039585;28;20486;-90
2023/12/17 05:18:06;;;;;;;0.10;0.10;;;9.80;99.90;;;;;;5059743;28;20059;-90
2023/12/17 05:20:31;;;;;;;0.45;0.40;;;9.90;99.90;;;;;;5076489;28;20050;-90
2023/12/17 05:22:57;;;;;;;8.00;0.32;;;9.90;99.90;;;;;;5060922;28;20036;-90
2023/12/17 05:25:22;;;;;;;0.85;0.70;;;10.70;99.90;;;;;;5077120;28;20043;-90
2023/12/17 05:27:48;;;;;;;0.00;0.00;;;9.90;99.90;;;;;;5043844;28;20044;-90
2023/12/17 05:30:14;;;;;;;1.65;0.57;;;9.80;99.90;;;;;;5059864;28;20056;-90
2023/12/17 05:32:40;;;;;;;2.45;0.52;;;9.80;99.90;;;;;;5077042;28;20087;-90
2023/12/17 05:35:06;;;;;;;0.13;0.13;;;9.90;99.90;;;;;;5078024;28;20097;-89
2023/12/17 05:37:31;;;;;;;0.45;0.40;;;9.90;99.90;;;;;;5060023;28;20083;-90
2023/12/17 05:39:57;;;;;;;0.10;0.10;;;9.80;99.90;;;;;;5071557;28;20052;-90
2023/12/17 05:42:23;;;;;;;0.25;0.20;;;9.80;99.90;;;;;;5076981;28;20043;-89
2023/12/17 05:44:49;;;;;;;0.17;0.17;;;9.70;99.90;;;;;;5056249;28;20080;-90
2023/12/17 05:47:14;;;;;;;0.10;0.10;;;9.70;99.90;;;;;;5059624;28;20025;-90
2023/12/17 05:49:40;;;;;;;0.00;0.00;;;9.70;99.90;;;;;;5075948;28;20132;-90
2023/12/17 05:52:07;;;;;;;0.50;0.43;;;9.80;99.90;;;;;;5077152;28;20092;-90
2023/12/17 05:54:33;;;;;;;0.55;0.45;;;9.70;99.90;;;;;;5077017;28;20037;-89
2023/12/17 05:56:59;;;;;;;0.17;0.15;;;10.50;99.90;;;;;;5060601;28;20124;-89
2023/12/17 05:59:25;;;;;;;0.30;0.30;;;10.20;99.90;;;;;;5075755;28;20037;-88
2023/12/17 06:01:50;;;;;;;0.20;0.20;;;9.70;98.70;;;;;;5074991;28;20040;-87
2023/12/17 06:04:16;;;;;;;0.00;0.00;;;9.70;56.80;;;;;;5034799;28;20044;-87
2023/12/17 06:06:42;;;;;;;0.63;0.30;;;9.70;65.80;;;;;;5069567;28;20513;-87
2023/12/17 06:09:08;;;;;;;0.15;0.15;;;9.70;77.90;;;;;;5044984;28;20511;-90
2023/12/17 06:11:33;;;;;;;0.10;0.10;;;9.70;37.70;;;;;;5057063;28;20368;-87
2023/12/17 06:13:59;;;;;;;0.30;0.30;;;9.60;11.80;;;;;;5053806;28;20124;-87
2023/12/17 06:16:25;;;;;;;1.00;0.43;;;9.70;1.00;;;;;;5036224;28;20518;-87
2023/12/17 06:18:52;;;;;;;0.38;0.35;;;9.60;1.00;;;;;;5035796;28;20075;-88
2023/12/17 06:21:26;;;;;;;0.60;0.50;;;9.70;1.00;;;;;;5035407;28;20048;-88
2023/12/17 06:23:58;;;;;;;0.60;0.60;;;9.50;4.50;;;;;;5018739;28;20552;-88
2023/12/17 06:26:26;;;;;;;0.57;0.57;;;9.50;76.10;;;;;;5053344;28;20128;-88
2023/12/17 06:28:53;;;;;;;0.10;0.10;;;9.90;8.20;;;;;;5053051;28;20048;-88
2023/12/17 06:31:19;;;;;;;3.30;1.13;;;9.50;51.50;;;;;;5053168;28;20041;-88
2023/12/17 06:33:45;;;;;;;0.80;0.80;;;9.50;41.30;;;;;;5034760;28;20098;-88
2023/12/17 06:36:10;;;;;;;2.25;0.43;;;9.50;1.00;;;;;;5052581;28;20045;-88
2023/12/17 06:38:39;;;;;;;0.88;0.50;;;9.50;1.00;;;;;;5035153;28;20498;-88
2023/12/17 06:41:04;;;;;;;3.58;1.20;;;9.60;1.00;;;;;;5037708;28;20045;-88
2023/12/17 06:43:30;;;;;;;0.10;0.10;;;9.60;1.00;;;;;;5038686;28;20183;-88
2023/12/17 06:45:56;;;;;;;0.00;0.00;;;9.50;1.00;;;;;;5056575;28;20041;-88
2023/12/17 06:48:21;;;;;;;2.05;1.83;;;9.60;1.00;;;;;;5056700;28;20049;-88
2023/12/17 06:50:47;;;;;;;0.10;0.10;;;9.50;1.00;;;;;;5056450;28;20487;-88
2023/12/17 06:53:16;;;;;;;0.75;0.43;;;9.60;1.00;;;;;;5038778;28;20044;-87
2023/12/17 06:55:43;;;;;;;0.00;0.00;;;9.50;1.00;;;;;;5056949;28;20394;-88
2023/12/17 06:58:08;;;;;;;0.80;0.80;;;9.50;1.00;;;;;;5038933;28;20055;-88
2023/12/17 07:00:34;;;;;;;0.10;0.00;;;9.50;1.00;;;;;;5056449;28;20044;-88
2023/12/17 07:03:01;;;;;;;0.38;0.38;;;10.50;27.60;;;;;;5038657;28;20048;-88
2023/12/17 07:05:26;;;;;;;0.00;0.00;;;9.50;1.00;;;;;;5021809;28;20051;-88
2023/12/17 07:07:52;;;;;;;0.35;0.32;;;9.50;1.00;;;;;;5056208;28;20494;-87
2023/12/17 07:10:17;;;;;;;0.00;0.00;;;9.50;1.00;;;;;;5038308;28;20060;-87
2023/12/17 07:12:43;;;;;;;0.65;0.43;;;9.50;1.00;;;;;;5038362;28;20088;-87
2023/12/17 07:15:10;;;;;;;0.45;0.32;;;9.50;1.00;;;;;;5056203;28;20459;-87
2023/12/17 07:17:35;;;;;;;0.38;0.32;;;10.60;1.00;;;;;;5056414;28;20045;-87
2023/12/17 07:20:01;;;;;;;0.75;0.32;;;9.60;1.00;;;;;;5037988;28;20037;-88
2023/12/17 07:22:27;;;;;;;0.63;0.20;;;9.60;1.00;;;;;;5038804;28;20124;-88
2023/12/17 07:24:52;;;;;;;0.03;0.03;;;9.60;1.00;;;;;;5022294;28;20452;-88
2023/12/17 07:27:18;;;;;;;0.60;0.38;;;9.50;1.00;;;;;;5056619;28;20051;-87
2023/12/17 07:29:43;;;;;;;0.20;0.20;;;9.60;1.00;;;;;;5056038;28;20045;-88
2023/12/17 07:32:09;;;;;;;0.00;0.00;;;9.60;1.00;;;;;;5038096;28;20392;-87
2023/12/17 07:34:35;;;;;;;0.20;0.20;;;9.60;1.00;;;;;;5037678;28;20041;-87
2023/12/17 07:37:01;;;;;;;0.88;0.30;;;9.60;1.00;;;;;;5056603;28;20069;-87
2023/12/17 07:39:27;;;;;;;1.13;1.02;;;9.60;1.00;;;;;;5056321;28;20048;-87
2023/12/17 07:41:53;;;;;;;0.52;0.30;;;9.60;1.00;;;;;;5056115;28;20124;-87
2023/12/17 07:44:18;;;;;;;0.75;0.75;;;9.60;1.00;;;;;;5039547;28;20045;-87
2023/12/17 07:46:44;;;;;;;0.25;0.25;;;9.60;1.00;;;;;;5039007;28;20128;-87
2023/12/17 07:49:10;;;;;;;1.55;1.20;;;9.60;1.00;;;;;;5055620;28;20387;-87
2023/12/17 07:51:38;;;;;;;0.35;0.35;;;9.60;1.00;;;;;;5036530;28;20068;-87
2023/12/17 07:54:04;;;;;;;1.48;0.90;;;9.60;1.00;;;;;;5056254;28;20131;-87
2023/12/17 07:56:30;;;;;;;0.57;0.57;;;10.90;1.00;;;;;;5054953;28;20099;-87
2023/12/17 07:58:56;;;;;;;0.75;0.73;;;10.50;1.00;;;;;;5055436;28;20045;-87
2023/12/17 08:01:29;;;;;;;0.98;0.43;;;9.60;1.00;;;;;;5020703;28;20049;-87
2023/12/17 08:03:55;;;;;;;1.00;0.35;;;9.50;1.00;;;;;;5037174;28;20124;-87
2023/12/17 08:06:21;;;;;;;1.33;1.23;;;9.50;1.00;;;;;;5038049;28;20127;-87
2023/12/17 08:08:46;;;;;;;2.00;1.85;;;9.50;1.00;;;;;;5054798;28;20087;-87
2023/12/17 08:11:12;;;;;;;4.22;0.85;;;9.50;1.00;;;;;;5036883;28;20056;-90
2023/12/17 08:13:38;;;;;;;0.40;0.40;;;9.60;1.00;;;;;;5055049;28;20041;-89
2023/12/17 08:16:04;;;;;;;0.57;0.47;;;9.60;1.00;;;;;;5055267;28;20040;-90
2023/12/17 08:18:30;;;;;;;1.30;1.20;;;9.60;1.00;;;;;;5037145;28;20402;-90
2023/12/17 08:20:57;;;;;;;0.35;0.32;;;9.60;1.00;;;;;;5036633;28;20044;-90
2023/12/17 08:23:23;;;;;;;0.65;0.63;;;9.60;1.00;;;;;;5036900;28;20414;-90
2023/12/17 08:25:49;;;;;;;0.68;0.60;;;9.50;1.00;;;;;;5036837;28;20037;-89
2023/12/17 08:28:16;;;;;;;0.20;0.20;;;9.50;1.00;;;;;;5054679;28;20051;-89
2023/12/17 08:30:41;;;;;;;3.58;1.48;;;9.60;1.00;;;;;;5054554;28;20049;-89
2023/12/17 08:33:07;;;;;;;2.40;1.35;;;9.50;1.00;;;;;;5063378;28;20043;-89
2023/12/17 08:35:36;;;;;;;0.20;0.20;;;9.50;1.00;;;;;;5041555;28;20051;-89
2023/12/17 08:38:05;;;;;;;2.72;1.55;;;9.50;1.00;;;;;;5054605;28;20396;-89
2023/12/17 08:40:32;;;;;;;1.73;1.08;;;9.60;1.00;;;;;;5054097;28;20049;-89
2023/12/17 08:42:58;;;;;;;3.55;2.80;;;9.50;1.00;;;;;;5066537;28;20094;-89
2023/12/17 08:45:24;;;;;;;0.20;0.20;;;9.50;1.00;;;;;;5062091;28;20048;-89
2023/12/17 08:47:50;;;;;;;0.75;0.68;;;9.60;1.00;;;;;;5055311;28;20044;-89
2023/12/17 08:50:16;;;;;;;1.02;0.65;;;9.60;1.00;;;;;;5068996;28;20494;-89
2023/12/17 08:52:41;;;;;;;34.97;1.35;;;9.60;1.00;;;;;;5035120;28;20510;-89
2023/12/17 08:55:07;;;;;;;0.65;0.63;;;9.60;1.00;;;;;;5034855;28;20083;-88
2023/12/17 08:57:33;;;;;;;0.20;0.20;;;9.60;1.00;;;;;;5058001;28;20044;-89
2023/12/17 08:59:58;;;;;;;0.93;0.35;;;9.70;1.00;;;;;;5067869;28;20041;-89
2023/12/17 09:02:24;;;;;;;0.85;0.77;;;10.30;1.00;;;;;;5035772;28;20123;-89
2023/12/17 09:04:51;;;;;;;1.05;0.73;;;9.60;1.00;;;;;;5052812;28;20099;-88
2023/12/17 09:07:17;;;;;;;0.05;0.05;;;9.60;1.00;;;;;;5052860;28;20045;-89
2023/12/17 09:09:43;;;;;;;1.75;1.40;;;9.60;22.90;;;;;;5051150;28;20467;-88
2023/12/17 09:12:09;;;;;;;1.85;1.17;;;9.60;6.70;;;;;;5051951;28;20124;-88
2023/12/17 09:14:36;;;;;;;0.50;0.50;;;9.70;83.90;;;;;;5033608;28;20041;-89
2023/12/17 09:17:02;;;;;;;1.42;1.00;;;9.70;90.80;;;;;;5052763;28;20055;-89
2023/12/17 09:19:27;;;;;;;1.02;0.90;;;9.70;51.10;;;;;;5052277;28;20493;-86
2023/12/17 09:21:53;;;;;;;2.40;0.98;;;9.80;12.80;;;;;;5052197;28;20080;-88
2023/12/17 09:24:20;;;;;;;2.55;1.35;;;9.80;5.80;;;;;;5034223;28;20048;-88
2023/12/17 09:26:45;;;;;;;1.10;0.60;;;9.90;52.30;;;;;;5033955;28;20436;-89
2023/12/17 09:29:11;;;;;;;1.90;1.20;;;9.90;1.00;;;;;;5034260;28;20132;-89
2023/12/17 09:31:36;;;;;;;1.10;1.00;;;9.90;30.40;;;;;;5051964;28;20044;-86
2023/12/17 09:34:02;;;;;;;5.32;1.38;;;9.90;1.00;;;;;;5052397;28;20048;-86
2023/12/17 09:36:28;;;;;;;0.20;0.15;;;10.00;1.00;;;;;;5052048;28;20064;-86
2023/12/17 09:38:54;;;;;;;1.65;0.68;;;10.00;1.00;;;;;;5052800;28;20052;-86
2023/12/17 09:41:19;;;;;;;3.85;2.15;;;10.00;25.40;;;;;;5052190;28;20103;-86
2023/12/17 09:43:46;;;;;;;0.32;0.32;;;10.00;21.30;;;;;;5051783;28;20060;-86
2023/12/17 09:46:12;;;;;;;1.42;0.82;;;10.00;46.50;;;;;;5052158;28;20045;-86
2023/12/17 09:48:38;;;;;;;2.35;1.15;;;10.00;13.60;;;;;;5051845;28;20029;-86
2023/12/17 09:51:03;;;;;;;0.25;0.25;;;10.10;1.00;;;;;;5051608;28;20478;-86
2023/12/17 09:53:31;;;;;;;1.25;1.15;;;10.10;1.00;;;;;;5051528;28;20041;-87
2023/12/17 09:55:57;;;;;;;1.58;1.17;;;10.10;1.00;;;;;;5051979;28;20053;-86
2023/12/17 09:58:26;;;;;;;0.60;0.47;;;10.10;1.00;;;;;;5051590;28;20037;-86
2023/12/17 10:00:52;;;;;;;2.35;1.20;;;10.10;1.00;;;;;;5051652;28;20119;-88
2023/12/17 10:03:17;;;;;;;1.75;0.95;;;10.20;99.90;;;;;;5034164;28;20056;-88
2023/12/17 10:05:52;;;;;;;0.73;0.73;;;10.20;99.90;;;;;;5033951;28;20478;-88
2023/12/17 10:08:17;;;;;;;1.42;1.08;;;10.10;99.90;;;;;;5051603;28;20148;-87
2023/12/17 10:10:43;;;;;;;3.50;1.67;;;10.60;99.90;;;;;;5043863;28;20128;-87
2023/12/17 10:13:10;;;;;;;0.52;0.43;;;10.20;99.90;;;;;;5051818;28;20073;-87
2023/12/17 10:15:37;;;;;;;3.65;2.55;;;10.10;99.90;;;;;;5031976;28;20391;-87
2023/12/17 10:18:07;;;;;;;1.45;1.08;;;10.20;99.90;;;;;;5028336;28;20049;-88
2023/12/17 10:20:33;;;;;;;0.95;0.93;;;10.20;99.90;;;;;;5051654;28;20037;-87
2023/12/17 10:23:00;;;;;;;2.00;1.05;;;10.20;99.90;;;;;;5051051;28;20135;-87
2023/12/17 10:25:27;;;;;;;0.60;0.60;;;10.20;99.90;;;;;;5034134;28;20535;-87
2023/12/17 10:27:59;;;;;;;3.38;1.95;;;10.20;99.90;;;;;;5028559;28;20045;-87
2023/12/17 10:30:34;;;;;;;0.20;0.20;;;10.30;99.90;;;;;;5029240;28;20048;-87
2023/12/17 10:33:01;;;;;;;0.28;0.28;;;10.30;99.90;;;;;;5052463;28;20045;-87
2023/12/17 10:35:29;;;;;;;6.75;1.65;;;10.30;99.90;;;;;;5051784;28;20072;-87
2023/12/17 10:38:06;;;;;;;1.65;1.45;;;10.50;99.90;;;;;;5052367;28;20049;-87
2023/12/17 10:40:33;;;;;;;0.85;0.32;;;10.30;99.90;;;;;;5034169;28;20516;-87
2023/12/17 10:42:59;;;;;;;6.72;3.33;;;10.30;99.90;;;;;;5033985;28;20045;-87
2023/12/17 10:45:26;;;;;;;0.98;0.82;;;10.60;99.90;;;;;;5051852;28;20045;-87
2023/12/17 10:47:53;;;;;;;1.17;1.10;;;10.30;99.90;;;;;;5034403;28;20049;-87
2023/12/17 10:50:20;;;;;;;1.80;1.70;;;10.30;99.90;;;;;;5034078;28;20144;-87
2023/12/17 10:52:47;;;;;;;2.22;1.80;;;11.70;99.90;;;;;;5051865;28;20402;-87
2023/12/17 10:55:14;;;;;;;5.60;2.42;;;10.30;99.90;;;;;;5033565;28;20052;-87
2023/12/17 10:57:52;;;;;;;2.17;1.13;;;10.30;99.90;;;;;;5051527;28;20063;-88
2023/12/17 11:00:21;;;;;;;5.82;2.17;;;10.30;99.90;;;;;;5032947;28;20050;-87
2023/12/17 11:02:50;;;;;;;1.35;1.25;;;10.30;99.90;;;;;;5052025;28;20119;-87
2023/12/17 11:05:15;;;;;;;1.10;0.93;;;10.30;99.90;;;;;;5051051;28;20049;-87
2023/12/17 11:07:41;;;;;;;1.35;0.95;;;10.30;99.90;;;;;;5051638;28;20071;-87
2023/12/17 11:10:10;;;;;;;4.43;2.85;;;10.40;99.90;;;;;;5051886;28;20060;-87
2023/12/17 11:12:36;;;;;;;1.05;1.00;;;10.40;99.90;;;;;;5034254;28;20486;-86
2023/12/17 11:15:02;;;;;;;3.03;2.28;;;10.50;99.90;;;;;;5016758;28;20120;-87
2023/12/17 11:17:28;;;;;;;2.42;2.22;;;10.50;99.90;;;;;;5017610;28;20041;-87
2023/12/17 11:19:54;;;;;;;3.97;2.13;;;10.50;99.90;;;;;;5052039;28;20045;-87
2023/12/17 11:22:23;;;;;;;3.13;1.77;;;11.70;99.90;;;;;;5051453;28;20056;-87
2023/12/17 11:24:50;;;;;;;1.90;1.75;;;10.50;99.90;;;;;;5016905;28;20167;-87
2023/12/17 11:27:21;;;;;;;1.48;1.38;;;10.50;99.90;;;;;;5054314;28;20040;-87
2023/12/17 11:29:47;;;;;;;2.28;1.35;;;10.40;99.90;;;;;;5055088;28;20091;-87
2023/12/17 11:32:14;;;;;;;1.65;1.52;;;10.40;99.90;;;;;;5054604;28;20041;-87
2023/12/17 11:34:40;;;;;;;1.67;0.80;;;10.40;99.90;;;;;;5054678;28;20047;-88
2023/12/17 11:37:06;;;;;;;0.73;0.63;;;10.40;99.90;;;;;;5054791;28;20045;-87
2023/12/17 11:39:32;;;;;;;1.10;1.00;;;10.40;99.90;;;;;;5036415;28;20128;-87
2023/12/17 11:41:58;;;;;;;2.08;1.67;;;10.50;99.90;;;;;;5053866;28;20041;-87
2023/12/17 11:44:23;;;;;;;1.50;0.88;;;10.50;99.90;;;;;;5058762;28;20118;-87
2023/12/17 11:46:49;;;;;;;2.20;1.75;;;10.40;99.90;;;;;;5038279;28;20045;-87
2023/12/17 11:49:25;;;;;;;1.88;1.65;;;10.50;99.90;;;;;;5057151;28;20036;-87
2023/12/17 11:51:52;;;;;;;1.27;1.13;;;10.50;99.90;;;;;;5058321;28;20036;-87
2023/12/17 11:54:22;;;;;;;0.88;0.80;;;10.40;99.90;;;;;;5074505;28;20044;-87
2023/12/17 11:56:48;;;;;;;1.15;0.95;;;10.40;98.10;;;;;;5033708;28;20049;-87
2023/12/17 11:59:15;;;;;;;5.97;1.50;;;10.50;96.10;;;;;;5034569;28;20495;-87
2023/12/17 12:01:41;;;;;;;2.10;1.77;;;10.30;94.20;;;;;;5034670;28;20041;-87
2023/12/17 12:04:07;;;;;;;4.28;0.60;;;10.30;99.10;;;;;;5036549;28;20503;-87
2023/12/17 12:06:32;;;;;;;2.35;1.23;;;10.20;97.00;;;;;;5054414;28;20084;-89
2023/12/17 12:08:59;;;;;;;2.47;1.45;;;10.10;83.40;;;;;;5053797;28;20095;-86
2023/12/17 12:11:34;;;;;;;1.45;1.08;;;10.10;99.90;;;;;;5053933;28;20459;-88
2023/12/17 12:14:00;;;;;;;2.15;0.98;;;10.10;99.90;;;;;;5054203;28;20049;-86
2023/12/17 12:16:25;;;;;;;1.65;1.00;;;10.10;99.90;;;;;;5049431;28;20172;-88
2023/12/17 12:19:02;;;;;;;0.80;0.32;;;10.20;99.90;;;;;;5075063;28;20532;-89
2023/12/17 12:21:28;;;;;;;1.38;1.27;;;10.20;99.90;;;;;;5076558;28;20056;-89
2023/12/17 12:23:55;;;;;;;4.80;1.58;;;10.20;99.90;;;;;;5064666;28;20030;-89
2023/12/17 12:26:22;;;;;;;1.20;0.93;;;10.60;99.90;;;;;;5043311;28;20071;-89
2023/12/17 12:28:55;;;;;;;1.92;1.73;;;10.20;99.90;;;;;;5054700;28;20049;-86
2023/12/17 12:31:20;;;;;;;1.05;0.82;;;10.20;99.90;;;;;;5031624;28;20060;-87
2023/12/17 12:33:56;;;;;;;1.48;1.05;;;10.20;99.90;;;;;;5054264;28;20049;-86
2023/12/17 12:36:21;;;;;;;0.52;0.52;;;10.20;99.90;;;;;;5053439;28;20049;-86
2023/12/17 12:39:04;;;;;;;0.93;0.90;;;10.20;87.80;;;;;;5052413;28;20375;-87
2023/12/17 12:41:31;;;;;;;2.83;1.27;;;10.20;74.30;;;;;;5053375;28;20387;-87
2023/12/17 12:43:59;;;;;;;0.25;0.25;;;10.20;70.10;;;;;;5052545;28;20044;-87
2023/12/17 12:46:25;;;;;;;0.82;0.82;;;10.50;79.30;;;;;;5039243;28;20048;-87
2023/12/17 12:48:57;;;;;;;3.42;1.77;;;10.10;90.20;;;;;;5052672;28;20067;-87
2023/12/17 12:51:24;;;;;;;4.65;2.08;;;10.30;90.40;;;;;;5053168;28;20095;-86